Terminal Aerodrome Forecast
Issued by NWS Melbourne, FL

Home | Current Version | Previous Version | Text Only | Print | Product List | Glossary On
Versions: 1 2 3 4 5 6 7 8 9 10 11 12 13 14 15 16 17 18 19 20 21 22 23 24 25 26 27 28
000
FTUS42 KMLB 031135
TAFMCO
TAF
KMCO 031135Z 0312/0412 00000KT P6SM FEW025 SCT100 BKN140
     FM031400 14004KT P6SM SCT020 SCT120 BKN200
     FM031900 09008KT P6SM VCTS SCT040CB BKN250
     FM040000 08005KT P6SM FEW050 SCT250=

USA.gov is the U.S. government's official web portal to all federal, state and local government web resources and services.